Time;durP1;ratioP1;P1;durP2;ratioP2;P2;SDS_P1;SDS_P2;PMS_P1;PMS_P2;Temp;Humidity;BMP_temperature;BMP_pressure;BME280_temperature;BME280_humidity;BME280_pressure;Samples;Min_cycle;Max_cycle;Signal;HPM_P1;HPM_P2
2022/08/31 00:05:30;;;;;;;2.72;1.00;;;20.70;90.50;;;;;;4177000;28;20041;-66
2022/08/31 00:07:33;;;;;;;1.58;1.13;;;20.70;90.60;;;;;;4179607;28;20090;-66
2022/08/31 00:09:34;;;;;;;2.08;1.17;;;20.60;90.50;;;;;;4178046;28;20036;-66
2022/08/31 00:11:35;;;;;;;0.90;0.80;;;20.70;90.90;;;;;;4177091;28;20029;-66
2022/08/31 00:13:36;;;;;;;1.15;0.90;;;20.60;90.80;;;;;;4178255;28;20041;-66
2022/08/31 00:15:37;;;;;;;3.50;0.90;;;20.60;91.00;;;;;;4179469;28;20478;-66
2022/08/31 00:17:37;;;;;;;3.80;1.05;;;20.40;91.00;;;;;;4177211;28;20037;-66
2022/08/31 00:19:38;;;;;;;1.67;0.88;;;20.40;91.30;;;;;;4174886;28;20500;-66
2022/08/31 00:21:39;;;;;;;1.90;1.00;;;20.30;92.10;;;;;;4175285;28;20036;-66
2022/08/31 00:23:40;;;;;;;3.20;1.20;;;20.30;91.60;;;;;;4178604;28;20106;-66
2022/08/31 00:25:44;;;;;;;2.92;1.13;;;20.30;91.70;;;;;;4179187;28;20083;-66
2022/08/31 00:27:45;;;;;;;1.77;1.20;;;20.20;92.10;;;;;;4178532;28;20033;-65
2022/08/31 00:29:45;;;;;;;1.92;1.10;;;20.10;92.20;;;;;;4175968;28;20055;-66
2022/08/31 00:31:46;;;;;;;2.55;0.88;;;20.10;92.40;;;;;;4173541;28;20530;-65
2022/08/31 00:33:51;;;;;;;2.38;1.10;;;20.20;92.20;;;;;;4176968;28;20402;-66
2022/08/31 00:35:52;;;;;;;1.23;0.90;;;20.10;92.30;;;;;;4174766;28;20033;-65
2022/08/31 00:37:52;;;;;;;1.50;0.90;;;20.10;92.50;;;;;;4177823;28;20434;-66
2022/08/31 00:39:53;;;;;;;3.00;1.10;;;20.00;92.50;;;;;;4174026;28;20037;-66
2022/08/31 00:41:55;;;;;;;1.45;0.75;;;20.10;92.60;;;;;;4175749;28;20481;-65
2022/08/31 00:44:00;;;;;;;1.70;0.93;;;20.10;92.70;;;;;;4178173;28;20112;-66
2022/08/31 00:46:01;;;;;;;3.30;1.40;;;20.10;92.70;;;;;;4178403;28;20037;-65
2022/08/31 00:48:01;;;;;;;0.80;0.80;;;20.00;92.90;;;;;;4178128;28;20039;-65
2022/08/31 00:50:07;;;;;;;2.10;1.20;;;20.00;93.00;;;;;;4176708;28;20060;-66
2022/08/31 00:52:13;;;;;;;1.75;0.90;;;20.00;93.10;;;;;;4158359;28;20044;-65
2022/08/31 00:54:18;;;;;;;1.38;1.00;;;20.00;93.30;;;;;;4174114;28;20040;-66
2022/08/31 00:56:20;;;;;;;2.83;1.20;;;20.00;93.50;;;;;;4169742;28;20065;-66
2022/08/31 00:58:21;;;;;;;2.85;1.00;;;20.00;93.30;;;;;;4162929;28;20039;-66
2022/08/31 01:00:24;;;;;;;1.20;0.85;;;19.90;93.50;;;;;;4165674;28;20037;-66
2022/08/31 01:02:25;;;;;;;1.73;1.10;;;19.90;93.70;;;;;;4149607;28;20057;-65
2022/08/31 01:04:26;;;;;;;1.98;1.00;;;19.80;93.80;;;;;;4164359;28;20638;-66
2022/08/31 01:06:27;;;;;;;1.55;1.40;;;19.80;93.80;;;;;;4163189;28;20124;-66
2022/08/31 01:08:28;;;;;;;1.00;0.85;;;19.80;94.40;;;;;;4166189;28;20056;-66
2022/08/31 01:10:33;;;;;;;1.30;0.93;;;19.80;94.70;;;;;;4162857;28;20041;-66
2022/08/31 01:12:34;;;;;;;1.50;0.80;;;19.80;94.00;;;;;;4176461;28;20170;-66
2022/08/31 01:14:37;;;;;;;1.42;0.88;;;19.70;94.10;;;;;;4164203;28;20056;-66
2022/08/31 01:16:53;;;;;;;2.70;0.93;;;19.70;94.50;;;;;;4161779;28;20517;-65
2022/08/31 01:18:57;;;;;;;1.13;1.00;;;19.60;94.40;;;;;;4163724;28;20170;-66
2022/08/31 01:21:21;;;;;;;3.28;1.00;;;19.50;94.60;;;;;;4164351;28;20028;-66
2022/08/31 01:23:26;;;;;;;1.52;0.85;;;19.60;94.60;;;;;;4174155;28;20034;-66
2022/08/31 01:25:26;;;;;;;1.55;0.90;;;19.50;94.70;;;;;;4176345;28;20052;-65
2022/08/31 01:27:31;;;;;;;1.13;0.85;;;19.50;95.00;;;;;;4175985;28;20091;-66
2022/08/31 01:29:34;;;;;;;0.63;0.63;;;19.50;95.00;;;;;;4174262;28;20041;-66
2022/08/31 01:31:40;;;;;;;1.70;0.75;;;19.50;94.90;;;;;;4173920;28;20123;-65
2022/08/31 01:33:40;;;;;;;2.05;0.82;;;19.50;95.00;;;;;;4179437;28;20091;-65
2022/08/31 01:35:44;;;;;;;3.55;0.90;;;19.50;95.10;;;;;;4188825;28;20048;-66
2022/08/31 01:37:44;;;;;;;0.70;0.70;;;19.40;95.80;;;;;;4180567;28;20040;-65
2022/08/31 01:39:45;;;;;;;1.15;0.80;;;19.40;95.40;;;;;;4168112;28;20037;-66
2022/08/31 01:41:46;;;;;;;1.52;0.63;;;19.40;95.60;;;;;;4160983;28;20045;-67
2022/08/31 01:43:47;;;;;;;1.90;0.85;;;19.40;96.20;;;;;;4163036;28;20029;-66
2022/08/31 01:45:48;;;;;;;2.00;1.27;;;19.30;95.70;;;;;;4177276;28;26124;-65
2022/08/31 01:47:49;;;;;;;1.10;1.02;;;19.30;95.80;;;;;;4176375;28;20163;-66
2022/08/31 01:49:49;;;;;;;3.30;0.80;;;19.30;95.90;;;;;;4162273;28;20525;-66
2022/08/31 01:51:51;;;;;;;0.95;0.82;;;19.20;96.10;;;;;;4163106;28;20036;-66
2022/08/31 01:53:53;;;;;;;1.80;0.93;;;19.20;96.30;;;;;;4163075;28;20095;-66
2022/08/31 01:55:53;;;;;;;2.80;1.13;;;19.20;96.30;;;;;;4161098;28;20092;-65
2022/08/31 01:57:56;;;;;;;1.88;0.90;;;19.10;96.40;;;;;;4163715;28;20088;-66
2022/08/31 01:59:59;;;;;;;1.67;1.02;;;19.20;96.50;;;;;;4164030;28;20103;-65
2022/08/31 02:02:03;;;;;;;1.95;1.00;;;19.10;96.70;;;;;;4162987;28;20048;-64
2022/08/31 02:04:05;;;;;;;2.00;0.90;;;19.10;96.80;;;;;;4145881;23;20050;-65
2022/08/31 02:06:08;;;;;;;1.05;0.80;;;19.00;97.00;;;;;;4138277;28;20034;-65
2022/08/31 02:08:09;;;;;;;1.33;0.73;;;18.90;97.10;;;;;;4142531;28;20147;-65
2022/08/31 02:10:10;;;;;;;1.20;0.85;;;19.00;97.30;;;;;;4142241;28;20468;-66
2022/08/31 02:12:11;;;;;;;1.05;0.80;;;18.90;97.30;;;;;;4143108;28;20026;-65
2022/08/31 02:14:11;;;;;;;1.27;0.65;;;19.00;97.40;;;;;;4143188;28;20034;-66
2022/08/31 02:16:12;;;;;;;2.35;0.75;;;18.90;97.50;;;;;;4143903;28;20512;-66
2022/08/31 02:18:13;;;;;;;1.63;0.73;;;18.90;97.60;;;;;;4141939;28;20041;-66
2022/08/31 02:20:15;;;;;;;1.30;0.90;;;18.90;97.80;;;;;;4139533;28;20533;-66
2022/08/31 02:22:15;;;;;;;1.80;0.88;;;18.90;97.90;;;;;;4142685;28;20050;-66
2022/08/31 02:24:16;;;;;;;1.17;0.88;;;19.00;97.80;;;;;;4139709;28;20551;-66
2022/08/31 02:26:17;;;;;;;1.25;0.68;;;18.90;97.90;;;;;;4140687;28;20030;-66
2022/08/31 02:28:17;;;;;;;0.75;0.75;;;18.90;98.40;;;;;;4143124;28;20113;-66
2022/08/31 02:30:18;;;;;;;1.17;0.98;;;18.90;98.20;;;;;;4142873;28;20042;-64
2022/08/31 02:32:20;;;;;;;1.42;1.00;;;18.90;98.40;;;;;;4143771;28;20042;-65
2022/08/31 02:34:20;;;;;;;2.15;0.93;;;18.90;98.80;;;;;;4143038;28;20169;-65
2022/08/31 02:36:21;;;;;;;2.83;0.80;;;18.80;98.60;;;;;;4142165;28;20478;-65
2022/08/31 02:38:21;;;;;;;1.92;1.00;;;18.80;98.70;;;;;;4142332;28;20389;-65
2022/08/31 02:40:22;;;;;;;1.45;0.82;;;18.90;98.80;;;;;;4141789;28;20066;-65
2022/08/31 02:42:23;;;;;;;4.32;1.10;;;18.80;99.00;;;;;;4142792;28;20038;-65
2022/08/31 02:44:24;;;;;;;3.17;1.33;;;18.70;99.30;;;;;;4142758;28;20490;-65
2022/08/31 02:46:24;;;;;;;1.45;1.15;;;18.70;99.40;;;;;;4143109;28;20477;-66
2022/08/31 02:48:25;;;;;;;3.40;1.08;;;18.70;99.40;;;;;;4143062;28;20037;-65
2022/08/31 02:50:26;;;;;;;2.63;0.90;;;18.70;99.60;;;;;;4141229;28;20034;-65
2022/08/31 02:52:26;;;;;;;1.85;1.02;;;18.60;99.80;;;;;;4141861;28;20037;-65
2022/08/31 02:54:27;;;;;;;2.03;1.15;;;18.60;99.90;;;;;;4143914;28;20034;-66
2022/08/31 02:56:27;;;;;;;1.02;0.90;;;18.60;99.90;;;;;;4137467;28;20045;-65
2022/08/31 02:58:28;;;;;;;2.40;0.70;;;18.60;99.90;;;;;;4145924;28;20034;-66
2022/08/31 03:00:29;;;;;;;3.25;1.02;;;18.60;99.90;;;;;;4143563;28;20482;-64
2022/08/31 03:02:30;;;;;;;1.23;0.80;;;18.60;99.90;;;;;;4146585;28;20040;-64
2022/08/31 03:04:30;;;;;;;0.93;0.80;;;18.70;99.90;;;;;;4145914;28;20030;-64
2022/08/31 03:06:31;;;;;;;0.75;0.70;;;18.60;99.90;;;;;;4145025;28;20125;-66
2022/08/31 03:08:32;;;;;;;4.22;1.05;;;18.60;99.90;;;;;;4145412;28;20027;-65
2022/08/31 03:10:33;;;;;;;1.55;1.02;;;18.50;99.90;;;;;;4143738;28;20050;-65
2022/08/31 03:12:35;;;;;;;2.08;0.80;;;18.60;99.90;;;;;;4145951;28;20064;-65
2022/08/31 03:14:35;;;;;;;1.77;1.05;;;18.60;99.90;;;;;;4145355;28;20464;-65
2022/08/31 03:16:39;;;;;;;1.38;0.90;;;18.60;99.90;;;;;;4146108;28;20038;-66
2022/08/31 03:18:39;;;;;;;1.20;1.08;;;18.60;99.90;;;;;;4145789;28;20330;-65
2022/08/31 03:20:40;;;;;;;1.15;0.82;;;18.50;99.90;;;;;;4145764;28;20460;-66
2022/08/31 03:22:41;;;;;;;1.10;0.90;;;18.50;99.90;;;;;;4146059;28;20129;-65
2022/08/31 03:24:42;;;;;;;1.85;0.98;;;18.50;99.90;;;;;;4145549;28;20045;-66
2022/08/31 03:26:44;;;;;;;1.37;0.90;;;18.50;99.90;;;;;;4144914;28;20033;-66
2022/08/31 03:28:44;;;;;;;0.82;0.82;;;18.50;99.90;;;;;;4144695;28;20092;-66
2022/08/31 03:30:45;;;;;;;1.20;0.93;;;18.50;99.90;;;;;;4143173;28;20767;-65
2022/08/31 03:32:47;;;;;;;1.30;1.05;;;18.50;99.90;;;;;;4145538;28;20065;-66
2022/08/31 03:34:51;;;;;;;1.98;0.82;;;18.50;99.90;;;;;;4145291;28;20458;-66
2022/08/31 03:36:51;;;;;;;1.15;0.70;;;18.50;99.90;;;;;;4142638;28;20061;-66
2022/08/31 03:38:52;;;;;;;1.67;0.73;;;18.60;99.90;;;;;;4146583;28;21961;-65
2022/08/31 03:40:53;;;;;;;1.70;1.13;;;18.60;99.90;;;;;;4142969;28;20038;-66
2022/08/31 03:42:55;;;;;;;1.50;0.90;;;18.60;99.90;;;;;;4145343;28;20469;-65
2022/08/31 03:44:55;;;;;;;3.92;0.75;;;18.60;99.90;;;;;;4145295;28;20493;-66
2022/08/31 03:46:56;;;;;;;1.42;0.90;;;18.60;99.90;;;;;;4144912;28;20026;-66
2022/08/31 03:48:57;;;;;;;1.25;0.85;;;18.50;99.90;;;;;;4142406;28;20042;-65
2022/08/31 03:50:58;;;;;;;1.42;0.73;;;18.50;99.90;;;;;;4144105;28;20087;-66
2022/08/31 03:53:02;;;;;;;1.17;0.93;;;18.50;99.90;;;;;;4145495;28;20045;-66
2022/08/31 03:55:04;;;;;;;0.90;0.73;;;18.50;99.90;;;;;;4142483;28;20105;-67
2022/08/31 03:57:06;;;;;;;4.65;1.30;;;18.40;99.90;;;;;;4143169;28;20134;-66
2022/08/31 03:59:09;;;;;;;0.80;0.80;;;18.40;99.90;;;;;;4143708;28;20034;-66
2022/08/31 04:01:12;;;;;;;1.25;0.77;;;18.40;99.90;;;;;;4142854;28;20034;-66
2022/08/31 04:03:12;;;;;;;1.40;0.90;;;18.40;99.90;;;;;;4144293;28;20042;-66
2022/08/31 04:05:13;;;;;;;1.02;0.80;;;18.40;99.90;;;;;;4143994;28;20457;-66
2022/08/31 04:07:14;;;;;;;1.33;1.02;;;18.40;99.90;;;;;;4142657;28;20493;-66
2022/08/31 04:09:14;;;;;;;0.85;0.80;;;18.40;99.90;;;;;;4145693;28;20022;-66
2022/08/31 04:11:17;;;;;;;0.98;0.93;;;18.40;99.90;;;;;;4144239;28;20041;-66
2022/08/31 04:13:17;;;;;;;1.33;0.88;;;18.40;99.90;;;;;;4139520;28;20114;-66
2022/08/31 04:15:19;;;;;;;0.88;0.65;;;18.40;99.90;;;;;;4132128;28;20407;-66
2022/08/31 04:17:20;;;;;;;1.45;0.93;;;18.50;99.90;;;;;;4133101;28;20578;-66
2022/08/31 04:19:23;;;;;;;1.35;0.90;;;18.50;99.90;;;;;;4144300;28;20038;-66
2022/08/31 04:21:26;;;;;;;1.25;0.90;;;18.40;99.90;;;;;;4134320;28;21168;-65
2022/08/31 04:23:28;;;;;;;1.25;1.05;;;18.50;99.90;;;;;;4136939;28;20026;-66
2022/08/31 04:25:29;;;;;;;0.80;0.70;;;18.50;99.90;;;;;;4129836;28;20030;-66
2022/08/31 04:27:30;;;;;;;0.80;0.80;;;18.60;99.90;;;;;;4139037;28;20036;-64
2022/08/31 04:29:31;;;;;;;2.28;0.80;;;18.60;99.90;;;;;;4141558;28;20058;-65
2022/08/31 04:31:34;;;;;;;1.25;0.70;;;18.50;99.90;;;;;;4142835;28;20045;-65
2022/08/31 04:33:36;;;;;;;3.50;0.90;;;18.50;99.90;;;;;;4146099;28;20113;-66
2022/08/31 04:35:40;;;;;;;1.60;1.05;;;18.50;99.90;;;;;;4145169;28;20038;-66
2022/08/31 04:37:40;;;;;;;0.95;0.82;;;18.40;99.90;;;;;;4143057;28;20022;-66
2022/08/31 04:39:41;;;;;;;0.98;0.70;;;18.40;99.90;;;;;;4145692;28;20038;-66
2022/08/31 04:41:41;;;;;;;1.38;1.10;;;18.40;99.90;;;;;;4143905;28;20049;-66
2022/08/31 04:43:48;;;;;;;1.65;0.93;;;18.50;99.90;;;;;;4145643;28;20444;-65
2022/08/31 04:45:48;;;;;;;1.92;1.00;;;18.50;99.90;;;;;;4144984;28;20038;-66
2022/08/31 04:47:49;;;;;;;1.00;0.88;;;18.50;99.90;;;;;;4145768;28;20109;-66
2022/08/31 04:49:49;;;;;;;1.83;0.90;;;18.50;99.90;;;;;;4144714;28;21670;-65
2022/08/31 04:51:50;;;;;;;1.35;1.10;;;18.50;99.90;;;;;;4143154;28;20517;-66
2022/08/31 04:53:51;;;;;;;2.15;1.00;;;18.40;99.90;;;;;;4143275;28;20038;-66
2022/08/31 04:55:52;;;;;;;1.20;0.90;;;18.40;99.90;;;;;;4139571;28;20477;-66
2022/08/31 04:57:52;;;;;;;1.25;0.80;;;18.30;99.90;;;;;;4141411;28;20099;-66
2022/08/31 04:59:53;;;;;;;1.35;0.95;;;18.40;99.90;;;;;;4141575;28;20053;-67
2022/08/31 05:01:54;;;;;;;1.50;1.10;;;18.30;99.90;;;;;;4138627;28;20076;-67
2022/08/31 05:03:56;;;;;;;1.10;0.98;;;18.30;99.90;;;;;;4129245;28;20050;-67
2022/08/31 05:05:57;;;;;;;1.20;0.80;;;18.30;99.90;;;;;;4128411;28;20652;-66
2022/08/31 05:07:57;;;;;;;1.20;0.77;;;18.30;99.90;;;;;;4128028;28;20122;-66
2022/08/31 05:09:58;;;;;;;1.30;1.10;;;18.40;99.90;;;;;;4128328;28;21654;-66
2022/08/31 05:11:58;;;;;;;2.08;0.88;;;18.40;99.90;;;;;;4131090;28;20046;-67
2022/08/31 05:14:01;;;;;;;1.27;0.80;;;18.40;99.90;;;;;;4141370;28;20022;-66
2022/08/31 05:16:04;;;;;;;1.20;0.80;;;18.40;99.90;;;;;;4138122;28;20393;-67
2022/08/31 05:18:04;;;;;;;;;;;18.40;99.90;;;;;;4143153;28;20072;-66
2022/08/31 05:20:05;;;;;;;2.30;0.95;;;18.50;99.90;;;;;;4145447;28;19913;-68
2022/08/31 05:22:06;;;;;;;1.25;0.90;;;18.50;99.90;;;;;;4141542;28;20046;-66
2022/08/31 05:24:13;;;;;;;1.00;0.90;;;18.60;99.90;;;;;;4143747;28;20038;-66
2022/08/31 05:26:21;;;;;;;1.13;0.90;;;18.60;99.70;;;;;;4144388;28;20036;-67
2022/08/31 05:28:22;;;;;;;1.08;0.95;;;18.60;99.90;;;;;;4139241;28;20493;-67
2022/08/31 05:30:23;;;;;;;1.55;0.85;;;18.60;99.90;;;;;;4144097;28;20034;-66
2022/08/31 05:32:24;;;;;;;2.13;0.95;;;18.60;99.90;;;;;;4138475;28;20104;-66
2022/08/31 05:34:25;;;;;;;3.42;0.93;;;18.60;99.20;;;;;;4128442;28;20449;-67
2022/08/31 05:36:25;;;;;;;1.02;0.90;;;18.50;99.50;;;;;;4126336;28;20114;-66
2022/08/31 05:38:26;;;;;;;2.17;1.00;;;18.60;99.80;;;;;;4138641;28;20033;-66
2022/08/31 05:40:27;;;;;;;1.67;0.68;;;18.50;99.30;;;;;;4142606;28;20128;-66
2022/08/31 05:42:27;;;;;;;2.55;1.02;;;18.50;99.60;;;;;;4143627;28;20121;-67
2022/08/31 05:44:28;;;;;;;0.82;0.80;;;18.50;99.10;;;;;;4143734;28;20030;-67
2022/08/31 05:46:29;;;;;;;1.33;1.02;;;18.40;99.90;;;;;;4143278;28;20491;-66
2022/08/31 05:48:32;;;;;;;1.77;0.95;;;18.30;99.10;;;;;;4144038;28;20096;-66
2022/08/31 05:50:35;;;;;;;1.63;1.10;;;18.30;99.90;;;;;;4142791;28;20032;-67
2022/08/31 05:52:36;;;;;;;;;;;18.20;99.50;;;;;;4139292;28;20041;-67
2022/08/31 05:54:37;;;;;;;4.10;1.10;;;18.20;99.60;;;;;;4141486;28;19909;-66
2022/08/31 05:56:40;;;;;;;1.13;0.90;;;18.00;99.60;;;;;;4140191;28;20034;-66
2022/08/31 05:58:43;;;;;;;1.48;1.00;;;17.90;99.90;;;;;;4140638;28;20033;-66
2022/08/31 06:00:43;;;;;;;1.40;1.17;;;17.90;99.80;;;;;;4140901;28;20535;-66
2022/08/31 06:02:44;;;;;;;2.42;0.90;;;17.90;99.90;;;;;;4143729;28;20053;-69
2022/08/31 06:04:44;;;;;;;1.60;1.20;;;17.80;99.90;;;;;;4140268;28;20034;-70
2022/08/31 06:06:46;;;;;;;2.85;1.00;;;17.80;99.90;;;;;;4142220;28;20045;-67
2022/08/31 06:08:46;;;;;;;1.75;1.20;;;17.70;99.90;;;;;;4141631;28;20388;-67
2022/08/31 06:10:47;;;;;;;1.77;0.98;;;17.60;99.90;;;;;;4143378;28;20034;-67
2022/08/31 06:12:48;;;;;;;1.30;1.20;;;17.70;99.90;;;;;;4138938;28;20034;-66
2022/08/31 06:14:49;;;;;;;2.70;1.10;;;17.70;99.90;;;;;;4143659;28;20037;-67
2022/08/31 06:16:50;;;;;;;3.53;1.48;;;17.70;99.90;;;;;;4142881;28;20030;-67
2022/08/31 06:18:52;;;;;;;1.77;1.40;;;17.60;99.90;;;;;;4143325;28;20034;-67
2022/08/31 06:21:07;;;;;;;1.55;1.20;;;17.60;99.90;;;;;;4142560;28;20138;-67
2022/08/31 06:23:08;;;;;;;2.20;1.10;;;17.70;99.90;;;;;;4140644;28;20056;-67
2022/08/31 06:25:09;;;;;;;4.05;0.93;;;17.70;99.90;;;;;;4142921;28;20117;-67
2022/08/31 06:27:10;;;;;;;1.48;1.20;;;17.70;99.90;;;;;;4141785;28;20042;-66
2022/08/31 06:29:10;;;;;;;2.15;1.13;;;17.70;99.90;;;;;;4146628;28;20028;-66
2022/08/31 06:31:18;;;;;;;2.20;1.00;;;17.80;99.90;;;;;;4146055;28;20121;-66
2022/08/31 06:33:19;;;;;;;2.15;1.27;;;17.70;99.90;;;;;;4146451;28;20100;-66
2022/08/31 06:35:20;;;;;;;3.70;1.42;;;17.70;99.90;;;;;;4145571;28;20041;-66
2022/08/31 06:37:20;;;;;;;2.65;1.10;;;17.70;99.70;;;;;;4146870;28;20036;-66
2022/08/31 06:39:21;;;;;;;1.40;1.00;;;17.70;99.70;;;;;;4146999;28;20033;-66
2022/08/31 06:41:25;;;;;;;1.88;1.15;;;17.70;99.60;;;;;;4144902;28;20041;-66
2022/08/31 06:43:26;;;;;;;2.10;1.42;;;17.80;99.50;;;;;;4144687;28;20022;-66
2022/08/31 06:45:27;;;;;;;2.30;1.00;;;17.80;99.60;;;;;;4145378;28;20045;-66
2022/08/31 06:47:27;;;;;;;2.15;0.82;;;17.90;99.40;;;;;;4145755;28;20384;-67
2022/08/31 06:49:28;;;;;;;1.88;1.02;;;18.10;99.10;;;;;;4141413;28;20048;-65
2022/08/31 06:51:35;;;;;;;2.97;1.20;;;18.30;98.60;;;;;;4144190;28;20034;-66
2022/08/31 06:53:39;;;;;;;2.78;0.98;;;18.50;98.40;;;;;;4146200;28;20052;-67
2022/08/31 06:55:39;;;;;;;2.85;1.40;;;18.70;97.50;;;;;;4145603;28;20088;-66
2022/08/31 06:57:40;;;;;;;8.20;1.30;;;18.80;97.70;;;;;;4143309;28;20034;-66
2022/08/31 06:59:40;;;;;;;2.50;1.10;;;19.00;96.90;;;;;;4145121;28;20108;-66
2022/08/31 07:01:41;;;;;;;2.10;1.23;;;19.20;96.60;;;;;;4141154;28;20076;-66
2022/08/31 07:03:43;;;;;;;4.72;1.27;;;19.50;96.30;;;;;;4145744;28;20497;-66
2022/08/31 07:05:43;;;;;;;1.45;0.82;;;19.60;95.80;;;;;;4145588;28;20045;-66
2022/08/31 07:07:44;;;;;;;1.50;1.10;;;19.70;95.10;;;;;;4143828;28;20038;-67
2022/08/31 07:09:44;;;;;;;2.75;1.20;;;19.70;95.20;;;;;;4146537;28;20030;-66
2022/08/31 07:11:48;;;;;;;2.88;1.30;;;19.90;95.10;;;;;;4143894;28;20055;-66
2022/08/31 07:13:52;;;;;;;1.45;1.08;;;20.00;94.90;;;;;;4145858;28;20045;-66
2022/08/31 07:16:02;;;;;;;1.85;1.40;;;19.90;94.60;;;;;;4145228;28;20115;-66
2022/08/31 07:18:03;;;;;;;2.53;1.15;;;19.70;94.80;;;;;;4145773;28;20404;-66
2022/08/31 07:20:04;;;;;;;3.20;1.30;;;19.90;94.40;;;;;;4143045;28;20045;-66
2022/08/31 07:22:06;;;;;;;1.90;1.10;;;19.90;94.30;;;;;;4145039;28;20112;-67
2022/08/31 07:24:09;;;;;;;1.58;1.00;;;20.10;94.40;;;;;;4145850;28;20392;-67
2022/08/31 07:26:12;;;;;;;3.40;1.60;;;20.30;94.00;;;;;;4144266;28;20033;-67
2022/08/31 07:28:13;;;;;;;2.10;1.30;;;20.40;93.70;;;;;;4145262;28;20087;-67
2022/08/31 07:30:14;;;;;;;2.17;1.35;;;20.50;93.60;;;;;;4145384;28;20124;-67
2022/08/31 07:32:16;;;;;;;3.00;1.30;;;20.70;93.60;;;;;;4145880;28;20498;-67
2022/08/31 07:34:19;;;;;;;2.43;1.20;;;20.80;93.40;;;;;;4145592;28;20044;-66
2022/08/31 07:36:20;;;;;;;2.08;1.40;;;21.00;93.10;;;;;;4144756;28;20438;-66
2022/08/31 07:43:03;;;;;;;6.07;2.80;;;21.30;92.30;;;;;;4145585;28;20030;-66
2022/08/31 07:45:10;;;;;;;5.95;2.50;;;20.90;92.00;;;;;;4144693;28;20040;-67
2022/08/31 07:47:12;;;;;;;5.13;1.80;;;21.10;92.70;;;;;;4145866;28;20038;-67
2022/08/31 07:49:14;;;;;;;3.78;1.90;;;21.20;92.10;;;;;;4144269;28;20042;-65
2022/08/31 07:51:22;;;;;;;4.97;2.25;;;21.10;92.20;;;;;;4144892;28;20044;-66
2022/08/31 07:53:23;;;;;;;12.73;2.63;;;21.00;92.40;;;;;;4145594;28;20099;-66
2022/08/31 07:55:26;;;;;;;3.35;1.88;;;21.20;92.30;;;;;;4143567;28;20046;-66
2022/08/31 07:57:28;;;;;;;4.50;1.92;;;21.00;92.40;;;;;;4145141;28;20045;-66
2022/08/31 07:59:31;;;;;;;4.35;2.08;;;21.10;92.40;;;;;;4140443;28;20548;-65
2022/08/31 08:01:36;;;;;;;5.30;2.53;;;21.30;92.10;;;;;;4143225;28;20033;-66
2022/08/31 08:03:42;;;;;;;8.32;2.78;;;21.50;92.40;;;;;;4143920;28;20105;-65
2022/08/31 08:05:43;;;;;;;10.02;3.35;;;21.40;91.70;;;;;;4140818;28;20042;-66
2022/08/31 08:07:44;;;;;;;5.88;2.53;;;21.40;91.70;;;;;;4145118;28;20047;-65
2022/08/31 08:09:45;;;;;;;3.78;2.08;;;21.50;91.80;;;;;;4141084;28;20030;-66
2022/08/31 08:11:45;;;;;;;8.23;2.35;;;21.50;91.80;;;;;;4143791;28;20030;-66
2022/08/31 08:13:47;;;;;;;4.50;2.20;;;21.70;94.60;;;;;;4144681;28;20050;-65
2022/08/31 08:15:49;;;;;;;5.32;2.17;;;22.00;92.50;;;;;;4144271;28;20127;-65
2022/08/31 08:17:50;;;;;;;5.38;2.20;;;22.10;91.70;;;;;;4144892;28;20136;-66
2022/08/31 08:19:51;;;;;;;4.30;1.90;;;22.20;92.60;;;;;;4144668;28;20084;-67
2022/08/31 08:21:52;;;;;;;5.05;1.95;;;22.30;91.20;;;;;;4143996;28;20037;-67
2022/08/31 08:23:52;;;;;;;3.42;1.63;;;22.30;90.80;;;;;;4144584;28;20516;-66
2022/08/31 08:25:54;;;;;;;5.25;2.20;;;22.20;90.50;;;;;;4143244;28;20041;-67
2022/08/31 08:27:54;;;;;;;4.93;2.30;;;22.20;90.60;;;;;;4142766;28;20046;-67
2022/08/31 08:29:55;;;;;;;3.40;1.70;;;22.20;90.80;;;;;;4142768;28;20057;-67
2022/08/31 08:31:55;;;;;;;3.92;1.48;;;22.20;90.80;;;;;;4143760;28;20026;-66
2022/08/31 08:33:57;;;;;;;3.55;1.88;;;22.30;91.10;;;;;;4144177;28;20340;-66
2022/08/31 08:36:01;;;;;;;4.63;1.98;;;22.30;90.50;;;;;;4143826;28;20041;-67
2022/08/31 08:38:02;;;;;;;4.32;1.70;;;22.00;90.70;;;;;;4144345;28;20030;-67
2022/08/31 08:40:04;;;;;;;4.22;1.75;;;22.10;91.50;;;;;;4142698;28;20030;-67
2022/08/31 08:42:10;;;;;;;6.47;2.00;;;22.10;90.90;;;;;;4139548;28;20038;-67
2022/08/31 08:44:14;;;;;;;9.25;2.22;;;22.00;91.00;;;;;;4144799;28;20034;-67
2022/08/31 08:46:15;;;;;;;3.80;1.80;;;21.80;91.10;;;;;;4143462;28;20041;-66
2022/08/31 08:48:20;;;;;;;3.33;1.67;;;21.90;91.30;;;;;;4140032;28;20034;-67
2022/08/31 08:50:26;;;;;;;5.93;2.25;;;21.70;91.50;;;;;;4143286;28;20113;-66
2022/08/31 08:52:40;;;;;;;4.05;1.40;;;21.50;91.70;;;;;;4143884;28;20034;-67
2022/08/31 08:54:45;;;;;;;5.63;1.98;;;21.30;92.00;;;;;;4143081;28;20044;-67
2022/08/31 08:56:47;;;;;;;2.83;1.27;;;21.40;92.30;;;;;;4143375;28;20065;-67
2022/08/31 08:58:48;;;;;;;2.47;1.15;;;21.40;92.40;;;;;;4140504;28;20030;-66
2022/08/31 09:00:51;;;;;;;2.75;1.45;;;21.40;92.50;;;;;;4143363;28;20389;-66
2022/08/31 09:02:54;;;;;;;4.85;1.30;;;21.40;92.70;;;;;;4143740;28;20041;-66
2022/08/31 09:05:10;;;;;;;;;;;21.60;92.70;;;;;;4143152;28;20034;-67
2022/08/31 09:07:25;;;;;;;3.13;1.50;;;21.80;92.60;;;;;;4143348;28;19984;-67
2022/08/31 09:09:56;;;;;;;3.35;1.40;;;21.90;92.60;;;;;;4139982;28;20042;-67
2022/08/31 09:12:25;;;;;;;3.72;1.55;;;22.00;92.60;;;;;;4142679;28;20164;-66
2022/08/31 09:14:38;;;;;;;3.08;1.85;;;22.20;92.30;;;;;;4140832;28;20060;-66
2022/08/31 09:16:39;;;;;;;;;;;22.30;93.50;;;;;;4143304;28;20112;-67
2022/08/31 09:18:53;;;;;;;2.97;1.67;;;22.30;91.70;;;;;;4142846;28;20365;-66
2022/08/31 09:21:11;;;;;;;3.15;1.42;;;22.30;92.00;;;;;;4141071;28;20030;-67
2022/08/31 09:23:12;;;;;;;2.42;1.30;;;22.40;92.20;;;;;;4143932;28;20056;-67
2022/08/31 09:25:15;;;;;;;2.83;1.33;;;22.60;92.00;;;;;;4141314;28;20038;-67
2022/08/31 09:27:34;;;;;;;;;;;22.70;91.90;;;;;;4143867;28;20066;-67
2022/08/31 09:29:43;;;;;;;4.00;1.58;;;22.80;91.70;;;;;;4143407;28;19975;-67
2022/08/31 09:31:45;;;;;;;3.15;1.67;;;22.90;91.30;;;;;;4142168;28;20088;-66
2022/08/31 09:33:49;;;;;;;3.20;1.40;;;22.90;91.20;;;;;;4143515;28;20045;-66
2022/08/31 09:35:57;;;;;;;2.97;1.30;;;23.10;91.20;;;;;;4139538;28;20084;-67
2022/08/31 09:38:00;;;;;;;6.97;1.45;;;23.10;91.20;;;;;;4143200;28;20125;-66
2022/08/31 09:40:19;;;;;;;2.38;1.50;;;23.20;90.80;;;;;;4142367;28;20432;-66
2022/08/31 09:42:31;;;;;;;2.10;1.30;;;23.40;90.90;;;;;;4141574;28;20104;-67
2022/08/31 09:44:38;;;;;;;3.05;1.60;;;23.60;91.10;;;;;;4143087;28;20092;-66
2022/08/31 09:46:47;;;;;;;4.57;1.83;;;23.80;90.20;;;;;;4140262;28;20116;-66
2022/08/31 09:48:57;;;;;;;1.85;1.30;;;23.80;90.40;;;;;;4143343;28;20508;-66
2022/08/31 09:51:01;;;;;;;2.15;1.42;;;23.90;90.50;;;;;;4140671;28;20032;-66
2022/08/31 09:55:30;;;;;;;1.27;1.10;;;24.00;91.60;;;;;;4141619;28;20038;-67
2022/08/31 09:57:43;;;;;;;3.65;1.67;;;24.00;89.80;;;;;;4143267;28;20113;-66
2022/08/31 09:59:50;;;;;;;4.40;1.73;;;24.10;90.30;;;;;;4141274;28;20034;-66
2022/08/31 10:01:50;;;;;;;3.67;1.60;;;24.10;89.90;;;;;;4140949;28;20030;-66
2022/08/31 10:04:11;;;;;;;3.15;1.23;;;24.10;90.30;;;;;;4142487;28;20401;-65
2022/08/31 10:06:25;;;;;;;3.60;1.60;;;24.30;91.00;;;;;;4136046;28;20033;-67
2022/08/31 10:08:55;;;;;;;2.13;1.15;;;24.10;89.30;;;;;;4141862;28;20053;-67
2022/08/31 10:11:05;;;;;;;6.25;2.00;;;24.20;91.30;;;;;;4141406;28;20087;-67
2022/08/31 10:13:28;;;;;;;2.22;1.50;;;24.20;90.00;;;;;;4142748;28;20030;-67
2022/08/31 10:15:57;;;;;;;3.13;1.30;;;24.20;89.00;;;;;;4140422;28;20038;-67
2022/08/31 10:18:13;;;;;;;2.70;1.58;;;24.30;89.60;;;;;;4141713;28;20037;-66
2022/08/31 10:20:25;;;;;;;2.75;1.40;;;24.20;89.60;;;;;;4142547;28;20042;-66
2022/08/31 10:22:35;;;;;;;4.38;1.60;;;24.30;90.00;;;;;;4140985;28;20050;-66
2022/08/31 10:25:03;;;;;;;2.55;1.50;;;24.30;88.90;;;;;;4142930;28;20092;-66
2022/08/31 10:27:12;;;;;;;4.15;1.98;;;24.40;88.70;;;;;;4141965;28;20125;-66
2022/08/31 10:29:39;;;;;;;4.53;1.90;;;24.40;88.10;;;;;;4143211;28;20057;-66
2022/08/31 10:31:46;;;;;;;8.38;2.00;;;24.50;88.20;;;;;;4139869;28;20037;-66
2022/08/31 10:36:26;;;;;;;5.88;2.05;;;24.40;87.60;;;;;;4141811;28;20058;-67
2022/08/31 10:38:46;;;;;;;2.83;1.88;;;24.70;87.40;;;;;;4142584;28;20491;-67
2022/08/31 10:40:59;;;;;;;2.53;1.85;;;24.50;87.90;;;;;;4141526;28;20025;-66
2022/08/31 10:43:17;;;;;;;2.83;1.90;;;24.70;87.30;;;;;;4142863;28;20038;-66
2022/08/31 10:45:22;;;;;;;3.00;1.90;;;24.80;87.80;;;;;;4139092;28;20038;-66
2022/08/31 10:47:29;;;;;;;2.92;1.70;;;24.90;87.10;;;;;;4142161;28;20121;-66
2022/08/31 10:49:34;;;;;;;3.42;1.80;;;24.70;86.70;;;;;;4137138;28;20053;-67
2022/08/31 10:51:49;;;;;;;3.00;1.55;;;24.70;87.00;;;;;;4140988;28;20582;-67
2022/08/31 10:54:05;;;;;;;4.57;1.92;;;24.80;87.10;;;;;;4141483;28;20037;-67
2022/08/31 10:56:19;;;;;;;6.00;1.95;;;24.60;86.70;;;;;;4141732;28;20042;-67
2022/08/31 10:58:39;;;;;;;3.83;1.75;;;24.50;87.00;;;;;;4142905;28;20366;-66